KSNS/SNS METAR and TAF weather

Enter ICAO airport designator
Station Type Date Time Source
KSNS METAR 2019/02/18 03:53 UTC NOAA

KSNS 180353Z AUTO 31007KT 10SM CLR 09/02 A3005 RMK AO2 SLP187 T00890017 $


Station Type Date Time Source
KSNS Decoded METAR 2019/02/18 03:53 UTC NOAA

SALINAS MUNICIPAL AIRPORT, CA, United States (KSNS) 36-40N 121-36W 30M
Feb 17, 2019 - 10:53 PM EST / 2019.02.18 0353 UTC
Wind: from the NW (310 degrees) at 8 MPH (7 KT):0
Visibility: 10 mile(s):0
Sky conditions: clear
Temperature: 48.0 F (8.9 C)
Dew Point: 35.1 F (1.7 C)
Relative Humidity: 60%
Pressure (altimeter): 30.05 in. Hg (1017 hPa)
ob: KSNS 180353Z AUTO 31007KT 10SM CLR 09/02 A3005 RMK AO2 SLP187 T00890017
cycle: 4

Station Type Date Time Source
KSNS TAF 2019/02/17 18:24 UTC NOAA

TAF KSNS 171721Z 1718/1818 13007KT P6SM VCSH FEW035 BKN050
FM172000 27012G22KT P6SM VCSH FEW035 SCT050
FM172300 27017G28KT P6SM FEW040 BKN050
FM180300 26010KT P6SM FEW050 SCT150
FM181200 10007KT P6SM FEW030 FEW150


Example: see airport list